Altamont, Pennsylvania
Current Conditions -  °F | °C
As of 4:35 AM on Friday 28 Nov 2014 (Local Time) from KHZL Reporting Station
Overcast Overcast  
Wind Chill: 21°   Ceiling: 4300
Heat Index: 28°   Visibility: 10mi
Dew Point: 23°   Wind: 7mph
Humidity: 80%   Direction: 270°W
Pressure: 30.07"   Gusts: NA
Location:  40.7811°N, 76.2523°W
Report Text: KHZL 280935Z AUTO 27006KT 10SM SCT028 SCT033 OVC043 M02/M05 A3007 RMK AO2
Loading
Personal Weather Stations






























Interactive Weather Map New forecast layout! Learn more

10-Day Weather Forecast

Advertisements
Track Severe Weather on mobile